Time;durP1;ratioP1;P1;durP2;ratioP2;P2;SDS_P1;SDS_P2;PMS_P1;PMS_P2;Temp;Humidity;BMP_temperature;BMP_pressure;BME280_temperature;BME280_humidity;BME280_pressure;Samples;Min_cycle;Max_cycle;Signal;HPM_P1;HPM_P2
2022/12/10 00:01:26;;;;;;;19.73;11.88;;;;;;;;;;5030714;28;20084;-86
2022/12/10 00:03:52;;;;;;;18.73;11.98;;;;;;;;;;5031485;28;20037;-86
2022/12/10 00:06:22;;;;;;;20.75;13.20;;;;;;;;;;5029829;28;20497;-87
2022/12/10 00:08:49;;;;;;;20.57;12.37;;;;;;;;;;5030377;28;20060;-86
2022/12/10 00:11:15;;;;;;;22.42;13.35;;;;;;;;;;5029725;28;20196;-86
2022/12/10 00:13:41;;;;;;;20.02;12.10;;;;;;;;;;5032435;28;20044;-86
2022/12/10 00:16:06;;;;;;;;;;;;;;;;;;5034978;28;20706;-86
2022/12/10 00:18:31;;;;;;;18.65;12.50;;;;;;;;;;5026941;28;19921;-86
2022/12/10 00:20:57;;;;;;;21.88;13.00;;;;;;;;;;5030880;28;20049;-86
2022/12/10 00:23:22;;;;;;;20.75;12.80;;;;;;;;;;5031806;28;20025;-88
2022/12/10 00:25:47;;;;;;;17.58;11.70;;;;;;;;;;5029299;28;20146;-86
2022/12/10 00:28:12;;;;;;;17.80;11.10;;;;;;;;;;5029181;28;20038;-86
2022/12/10 00:30:37;;;;;;;15.97;9.67;;;;;;;;;;5031014;28;20581;-88
2022/12/10 00:33:03;;;;;;;17.73;10.93;;;;;;;;;;5029170;28;20040;-88
2022/12/10 00:35:28;;;;;;;17.13;10.70;;;;;;;;;;5028900;28;20033;-88
2022/12/10 00:37:53;;;;;;;15.97;10.17;;;;;;;;;;5029752;28;20375;-87
2022/12/10 00:40:18;;;;;;;15.50;10.13;;;;;;;;;;5030336;28;20038;-89
2022/12/10 00:42:43;;;;;;;15.38;10.15;;;;;;;;;;5033929;28;20044;-88
2022/12/10 00:45:09;;;;;;;15.07;9.60;;;;;;;;;;5042254;28;20045;-88
2022/12/10 00:47:34;;;;;;;;;;;;;;;;;;5030919;28;20042;-87
2022/12/10 00:49:59;;;;;;;15.80;9.80;;;;;;;;;;5031483;28;20055;-88
2022/12/10 00:52:24;;;;;;;;;;;;;;;;;;5028923;28;20049;-88
2022/12/10 00:54:49;;;;;;;19.95;11.95;;;;;;;;;;5030115;28;19920;-87
2022/12/10 00:57:15;;;;;;;14.93;10.10;;;;;;;;;;5029110;28;20029;-88
2022/12/10 00:59:41;;;;;;;16.35;10.45;;;;;;;;;;5033817;28;20083;-88
2022/12/10 01:02:06;;;;;;;21.08;12.57;;;;;;;;;;5028750;28;20033;-87
2022/12/10 01:04:31;;;;;;;19.77;11.60;;;;;;;;;;5028539;28;20096;-88
2022/12/10 01:06:56;;;;;;;21.40;13.43;;;;;;;;;;5029905;28;20489;-89
2022/12/10 01:09:23;;;;;;;21.23;12.33;;;;;;;;;;5029470;28;20064;-88
2022/12/10 01:11:49;;;;;;;22.65;13.65;;;;;;;;;;5028277;28;20064;-88
2022/12/10 01:14:17;;;;;;;21.77;13.82;;;;;;;;;;5028744;28;20125;-88
2022/12/10 01:16:42;;;;;;;22.60;14.45;;;;;;;;;;5028786;28;20045;-88
2022/12/10 01:19:07;;;;;;;22.23;13.23;;;;;;;;;;5030393;28;20037;-88
2022/12/10 01:21:33;;;;;;;24.53;14.77;;;;;;;;;;5034733;28;20030;-88
2022/12/10 01:23:58;;;;;;;22.67;14.60;;;;;;;;;;5040019;28;20552;-88
2022/12/10 01:26:25;;;;;;;21.67;13.50;;;;;;;;;;5039371;28;20646;-87
2022/12/10 01:28:50;;;;;;;20.05;12.77;;;;;;;;;;5040310;28;20072;-87
2022/12/10 01:31:18;;;;;;;23.83;14.15;;;;;;;;;;5035352;28;20033;-87
2022/12/10 01:33:43;;;;;;;22.40;13.60;;;;;;;;;;5029987;28;20037;-87
2022/12/10 01:36:10;;;;;;;24.42;15.48;;;;;;;;;;5027931;28;20038;-88
2022/12/10 01:38:36;;;;;;;26.83;16.15;;;;;;;;;;5028966;28;20041;-87
2022/12/10 01:41:01;;;;;;;24.73;15.15;;;;;;;;;;5027237;28;20473;-88
2022/12/10 01:43:27;;;;;;;28.40;16.30;;;;;;;;;;5027287;28;20065;-89
2022/12/10 01:45:52;;;;;;;23.30;15.02;;;;;;;;;;5033948;28;20033;-88
2022/12/10 01:48:18;;;;;;;23.43;15.63;;;;;;;;;;5016168;28;20173;-90
2022/12/10 01:50:43;;;;;;;25.98;15.57;;;;;;;;;;5020653;28;20046;-87
2022/12/10 01:53:08;;;;;;;28.00;16.63;;;;;;;;;;5022377;28;20558;-88
2022/12/10 01:55:40;;;;;;;27.63;17.52;;;;;;;;;;5035042;28;20037;-85
2022/12/10 01:58:05;;;;;;;27.83;16.98;;;;;;;;;;5029875;28;20048;-85
2022/12/10 02:00:32;;;;;;;27.02;16.15;;;;;;;;;;5024094;28;20585;-85
2022/12/10 02:03:05;;;;;;;27.60;15.80;;;;;;;;;;5027309;28;20033;-85
2022/12/10 02:05:36;;;;;;;26.63;15.70;;;;;;;;;;5026806;28;20043;-86
2022/12/10 02:08:18;;;;;;;23.40;14.70;;;;;;;;;;5028434;28;20091;-86
2022/12/10 02:10:50;;;;;;;25.73;15.07;;;;;;;;;;5030486;28;20041;-85
2022/12/10 02:13:23;;;;;;;23.20;14.55;;;;;;;;;;5030771;28;20041;-85
2022/12/10 02:15:52;;;;;;;24.65;14.50;;;;;;;;;;5031897;28;20033;-85
2022/12/10 02:18:24;;;;;;;23.77;14.25;;;;;;;;;;5010415;28;20065;-85
2022/12/10 02:20:51;;;;;;;24.13;14.60;;;;;;;;;;5010804;28;20034;-85
2022/12/10 02:23:21;;;;;;;24.80;15.15;;;;;;;;;;5027465;28;20037;-85
2022/12/10 02:25:56;;;;;;;24.73;14.35;;;;;;;;;;5031613;28;20033;-85
2022/12/10 02:28:39;;;;;;;23.77;13.82;;;;;;;;;;5031497;28;20536;-85
2022/12/10 02:31:05;;;;;;;27.13;16.17;;;;;;;;;;5029594;28;20041;-85
2022/12/10 02:33:31;;;;;;;28.00;15.93;;;;;;;;;;5029222;28;20046;-85
2022/12/10 02:35:56;;;;;;;28.67;16.77;;;;;;;;;;5035116;28;20034;-85
2022/12/10 02:38:30;;;;;;;26.95;16.73;;;;;;;;;;5033765;28;20050;-85
2022/12/10 02:40:58;;;;;;;22.15;14.57;;;;;;;;;;5035536;28;20120;-85
2022/12/10 02:43:24;;;;;;;19.90;14.80;;;;;;;;;;5032246;28;20480;-85
2022/12/10 02:45:50;;;;;;;17.07;12.57;;;;;;;;;;5030361;28;20469;-85
2022/12/10 02:48:15;;;;;;;21.83;13.77;;;;;;;;;;5030439;28;20037;-87
2022/12/10 02:50:40;;;;;;;26.58;16.33;;;;;;;;;;5029802;28;20034;-87
2022/12/10 02:53:06;;;;;;;28.87;16.37;;;;;;;22.42;100.00;159239.78;5029674;28;20045;-85
2022/12/10 02:55:38;;;;;;;22.73;16.73;;;;;;;;;;5028795;28;20407;-86
2022/12/10 02:58:09;;;;;;;25.95;16.02;;;;;;;;;;5031279;28;20036;-86
2022/12/10 03:00:44;;;;;;;26.88;16.73;;;;;;;22.39;0.00;87209.31;5033277;28;20117;-87
2022/12/10 03:03:09;;;;;;;;;;;;;;;;;;5035302;28;20731;-86
2022/12/10 03:05:38;;;;;;;28.08;16.45;;;;;;;;;;5033092;28;19940;-86
2022/12/10 03:08:13;;;;;;;23.70;14.50;;;;;;;;;;5032328;28;20049;-85
2022/12/10 03:11:11;;;;;;;25.80;15.57;;;;;;;;;;5028708;28;20046;-84
2022/12/10 03:13:38;;;;;;;26.83;15.88;;;;;;;;;;4990192;28;20129;-87
2022/12/10 03:16:04;;;;;;;27.73;16.65;;;;;;;;;;5031713;28;20033;-87
2022/12/10 03:18:31;;;;;;;26.35;15.57;;;;;;;;;;5032533;28;20048;-88
2022/12/10 03:20:58;;;;;;;24.13;14.80;;;;;;;;;;5032428;28;20163;-87
2022/12/10 03:23:23;;;;;;;;;;;;;;;;;;5033234;28;20136;-85
2022/12/10 03:25:49;;;;;;;27.98;16.25;;;;;;;;;;5032899;28;19960;-86
2022/12/10 03:28:15;;;;;;;27.33;15.65;;;;;;;;;;5034303;28;20033;-86
2022/12/10 03:30:41;;;;;;;32.60;17.67;;;;;;;;;;5034040;28;20116;-87
2022/12/10 03:33:07;;;;;;;24.33;15.18;;;;;;;;;;5027960;28;20037;-87
2022/12/10 03:35:32;;;;;;;24.63;14.38;;;;;;;;;;5032677;28;20106;-87
2022/12/10 03:37:57;;;;;;;;;;;;;;;;;;5034014;28;20037;-86
2022/12/10 03:40:23;;;;;;;;;;;;;;;;;;5035150;28;19959;-86
2022/12/10 03:42:48;;;;;;;;;;;;;;;;;;5032499;28;19917;-87
2022/12/10 03:45:13;;;;;;;;;;;;;;;;;;5051383;28;19916;-87
2022/12/10 03:47:39;;;;;;;24.02;13.75;;;;;;;;;;5032309;28;20316;-87
2022/12/10 03:50:04;;;;;;;24.15;14.30;;;;;;;;;;5031045;28;20033;-86
2022/12/10 03:52:29;;;;;;;25.90;15.10;;;;;;;;;;5031652;28;20045;-86
2022/12/10 03:54:54;;;;;;;26.67;16.07;;;;;;;;;;5030752;28;20033;-86
2022/12/10 03:57:20;;;;;;;29.77;20.23;;;;;;;;;;5029414;28;20812;-87
2022/12/10 03:59:45;;;;;;;27.50;19.90;;;;;;;0.67;nan;98945.13;5029508;28;20403;-86
2022/12/10 04:02:10;;;;;;;25.33;18.87;;;;;;;;;;5030255;28;20481;-84
2022/12/10 04:04:35;;;;;;;30.30;18.58;;;;;;;;;;5031383;28;20045;-87
2022/12/10 04:07:01;;;;;;;28.77;17.48;;;;;;;;;;5031128;28;20505;-86
2022/12/10 04:09:26;;;;;;;30.50;18.20;;;;;;;22.38;0.00;54020.09;5032722;28;20098;-86
2022/12/10 04:11:54;;;;;;;26.95;16.35;;;;;;;;;;5032545;28;20061;-86
2022/12/10 04:17:03;;;;;;;29.52;17.85;;;;;;;;;;5039069;28;20084;-85
2022/12/10 04:19:28;;;;;;;30.17;17.00;;;;;;;;;;5037460;28;20045;-87
2022/12/10 04:27:23;;;;;;;31.73;18.15;;;;;;;;;;5033622;28;20060;-86
2022/12/10 04:29:48;;;;;;;27.98;17.30;;;;;;;;;;5046016;28;20062;-88
2022/12/10 04:32:14;;;;;;;32.40;18.77;;;;;;;;;;5047401;28;20481;-88
2022/12/10 04:34:39;;;;;;;29.23;18.00;;;;;;;;;;5034930;28;20581;-85
2022/12/10 04:37:04;;;;;;;31.23;18.23;;;;;;;;;;5034838;28;20029;-85
2022/12/10 04:39:30;;;;;;;32.50;18.60;;;;;;;;;;5035317;28;20140;-85
2022/12/10 04:41:55;;;;;;;31.05;18.25;;;;;;;;;;5033610;28;20025;-85
2022/12/10 04:44:20;;;;;;;32.00;18.20;;;;;;;;;;5032195;28;20045;-85
2022/12/10 04:46:46;;;;;;;28.60;17.10;;;;;;;;;;5033750;28;20061;-85
2022/12/10 04:49:11;;;;;;;28.23;16.58;;;;;;;;;;5033440;28;20033;-85
2022/12/10 04:51:37;;;;;;;31.20;17.67;;;;;;;;;;5030169;28;20045;-88
2022/12/10 04:54:02;;;;;;;28.10;16.08;;;;;;;;;;5028781;28;20501;-87
2022/12/10 04:56:27;;;;;;;29.58;17.58;;;;;;;;;;5029048;28;20033;-87
2022/12/10 04:58:54;;;;;;;32.17;18.63;;;;;;;;;;5028821;28;20144;-88
2022/12/10 05:01:19;;;;;;;31.00;17.75;;;;;;;;;;5030066;28;20419;-88
2022/12/10 05:03:44;;;;;;;27.23;16.67;;;;;;;;;;5028251;28;20113;-88
2022/12/10 05:06:11;;;;;;;28.73;17.07;;;;;;;;;;5029429;28;20037;-87
2022/12/10 05:08:37;;;;;;;28.63;16.77;;;;;;;;;;5030271;28;20048;-87
2022/12/10 05:11:04;;;;;;;27.38;16.60;;;;;;;;;;5028567;28;20034;-87
2022/12/10 05:13:29;;;;;;;26.85;15.45;;;;;;;;;;5028637;28;20432;-88
2022/12/10 05:15:54;;;;;;;25.73;15.30;;;;;;;;;;5029829;28;20030;-87
2022/12/10 05:18:19;;;;;;;24.53;15.13;;;;;;;;;;5028147;28;20041;-87
2022/12/10 05:20:44;;;;;;;27.80;16.80;;;;;;;22.38;0.00;54042.84;5028812;28;20413;-88
2022/12/10 05:23:28;;;;;;;26.17;16.02;;;;;;;;;;5028199;28;20045;-88
2022/12/10 05:26:00;;;;;;;26.25;15.40;;;;;;;;;;5029926;28;20128;-87
2022/12/10 05:28:26;;;;;;;28.88;16.85;;;;;;;;;;5028733;28;20038;-87
2022/12/10 05:30:51;;;;;;;25.63;15.45;;;;;;;;;;5028578;28;20057;-87
2022/12/10 05:33:16;;;;;;;27.90;16.50;;;;;;;;;;5029794;28;20168;-88
2022/12/10 05:35:41;;;;;;;27.37;16.20;;;;;;;;;;5028608;28;20279;-87
2022/12/10 05:38:07;;;;;;;26.20;15.13;;;;;;;;;;5027561;28;20369;-88
2022/12/10 05:40:35;;;;;;;26.23;14.93;;;;;;;;;;5027599;28;20272;-88
2022/12/10 05:43:01;;;;;;;25.02;15.27;;;;;;;;;;5028209;28;20395;-88
2022/12/10 05:45:26;;;;;;;26.55;16.30;;;;;;;;;;5029124;28;20053;-87
2022/12/10 05:47:51;;;;;;;25.83;15.13;;;;;;;;;;5028253;28;20040;-88
2022/12/10 05:50:16;;;;;;;27.53;16.03;;;;;;;;;;5010536;28;20552;-89
2022/12/10 05:52:42;;;;;;;26.67;16.08;;;;;;;;;;5007938;28;20308;-87
2022/12/10 05:55:07;;;;;;;26.53;16.17;;;;;;;;;;5017103;28;20064;-88
2022/12/10 05:57:32;;;;;;;26.85;15.95;;;;;;;;;;5028009;28;20265;-88
2022/12/10 05:59:57;;;;;;;29.03;17.70;;;;;;;;;;5027820;28;20132;-87
2022/12/10 06:02:22;;;;;;;28.83;17.15;;;;;;;;;;5027478;28;20083;-87
2022/12/10 06:04:48;;;;;;;30.13;17.53;;;;;;;;;;5027809;28;20040;-88
2022/12/10 06:07:13;;;;;;;29.27;17.13;;;;;;;;;;5027866;28;20044;-87
2022/12/10 06:09:38;;;;;;;28.37;15.83;;;;;;;;;;5028645;28;20090;-88
2022/12/10 06:12:03;;;;;;;28.52;16.65;;;;;;;;;;5031168;28;20042;-87
2022/12/10 06:14:29;;;;;;;27.27;16.33;;;;;;;;;;5030888;28;20452;-87
2022/12/10 06:16:54;;;;;;;26.53;15.67;;;;;;;22.38;100.00;54040.97;5031202;28;20564;-88
2022/12/10 06:19:19;;;;;;;25.08;15.23;;;;;;;;;;5031891;28;20787;-87
2022/12/10 06:21:44;;;;;;;27.30;15.67;;;;;;;;;;5032440;28;20048;-88
2022/12/10 06:24:10;;;;;;;26.07;16.77;;;;;;;;;;5032883;28;20523;-87
2022/12/10 06:26:35;;;;;;;26.08;15.75;;;;;;;;;;5032821;28;20095;-88
2022/12/10 06:29:00;;;;;;;26.45;15.77;;;;;;;;;;5037186;28;20038;-88
2022/12/10 06:31:25;;;;;;;31.05;17.60;;;;;;;;;;5038032;28;20029;-87
2022/12/10 06:33:52;;;;;;;29.27;16.73;;;;;;;;;;5036626;28;20087;-87
2022/12/10 06:36:17;;;;;;;27.45;16.38;;;;;;;;;;5034783;28;20296;-88
2022/12/10 06:38:43;;;;;;;25.35;15.23;;;;;;;;;;5033398;28;20034;-88
2022/12/10 06:41:09;;;;;;;25.23;15.55;;;;;;;;;;5031878;28;20037;-87
2022/12/10 06:43:34;;;;;;;33.72;19.10;;;;;;;;;;5031205;28;20091;-88
2022/12/10 06:46:04;;;;;;;39.30;21.73;;;;;;;;;;5030642;28;20041;-87
2022/12/10 06:48:29;;;;;;;29.70;16.90;;;;;;;;;;5020366;28;20045;-88
2022/12/10 06:50:55;;;;;;;27.30;16.37;;;;;;;;;;5031638;28;20033;-87
2022/12/10 06:53:20;;;;;;;25.92;14.93;;;;;;;;;;5030588;28;20594;-87
2022/12/10 06:55:45;;;;;;;27.20;16.27;;;;;;;;;;5030681;28;20030;-88
2022/12/10 06:58:10;;;;;;;28.80;16.97;;;;;;;;;;5031502;28;20790;-87
2022/12/10 07:00:36;;;;;;;32.50;19.35;;;;;;;;;;5030658;28;20821;-88
2022/12/10 07:03:01;;;;;;;32.33;19.30;;;;;;;;;;5030903;28;20116;-87
2022/12/10 07:05:26;;;;;;;32.97;18.93;;;;;;;;;;5030873;28;20276;-88
2022/12/10 07:07:51;;;;;;;29.47;18.63;;;;;;;;;;5031120;28;20296;-88
2022/12/10 07:10:16;;;;;;;30.73;18.03;;;;;;;;;;5031227;28;20280;-87
2022/12/10 07:12:42;;;;;;;28.98;18.05;;;;;;;;;;5032599;28;20038;-89
2022/12/10 07:15:07;;;;;;;30.57;17.57;;;;;;;;;;5032861;28;20060;-88
2022/12/10 07:17:32;;;;;;;30.45;19.10;;;;;;;;;;5033303;28;20334;-87
2022/12/10 07:19:57;;;;;;;30.27;18.33;;;;;;;;;;5031681;28;20095;-87
2022/12/10 07:22:23;;;;;;;30.93;18.60;;;;;;;;;;5032126;28;20785;-88
2022/12/10 07:24:48;;;;;;;28.03;17.27;;;;;;;;;;5032210;28;20700;-88
2022/12/10 07:27:13;;;;;;;33.08;18.77;;;;;;;;;;5030476;28;20675;-88
2022/12/10 07:29:39;;;;;;;28.97;17.57;;;;;;;;;;5030498;28;20064;-88
2022/12/10 07:32:04;;;;;;;32.00;18.60;;;;;;;;;;5031224;28;20034;-87
2022/12/10 07:34:29;;;;;;;32.45;18.77;;;;;;;;;;5030896;28;20584;-88
2022/12/10 07:36:54;;;;;;;28.43;17.73;;;;;;;;;;5031297;28;20060;-87
2022/12/10 07:39:20;;;;;;;32.83;18.73;;;;;;;;;;5031093;28;20040;-87
2022/12/10 07:41:50;;;;;;;29.67;18.08;;;;;;;;;;5028866;28;20456;-86
2022/12/10 07:44:16;;;;;;;29.42;17.75;;;;;;;;;;5028329;28;20041;-86
2022/12/10 07:46:41;;;;;;;31.55;18.40;;;;;;;;;;5026211;28;20167;-84
2022/12/10 07:49:08;;;;;;;31.60;17.70;;;;;;;;;;5030381;28;20038;-84
2022/12/10 07:51:33;;;;;;;30.80;18.40;;;;;;;;;;5029622;28;20038;-85
2022/12/10 07:53:58;;;;;;;28.73;17.77;;;;;;;;;;5030112;28;20393;-85
2022/12/10 07:56:24;;;;;;;29.55;17.08;;;;;;;;;;5033187;28;20034;-84
2022/12/10 07:58:49;;;;;;;28.75;17.42;;;;;;;;;;5030933;28;20037;-86
2022/12/10 08:01:18;;;;;;;27.15;16.38;;;;;;;;;;5032915;28;20072;-86
2022/12/10 08:03:44;;;;;;;29.08;17.15;;;;;;;;;;5031523;28;20096;-86
2022/12/10 08:06:10;;;;;;;30.42;17.00;;;;;;;;;;5030162;28;20719;-86
2022/12/10 08:08:37;;;;;;;28.35;16.80;;;;;;;;;;5039648;28;20033;-84
2022/12/10 08:11:03;;;;;;;30.25;16.90;;;;;;;;;;5038131;28;20061;-85
2022/12/10 08:13:28;;;;;;;25.95;15.10;;;;;;;;;;5031569;28;20037;-84
2022/12/10 08:15:54;;;;;;;27.65;15.95;;;;;;;;;;5038179;28;20052;-84
2022/12/10 08:18:20;;;;;;;24.15;14.48;;;;;;;;;;5035078;28;20052;-86
2022/12/10 08:20:45;;;;;;;27.63;16.23;;;;;;;;;;5032202;28;20037;-86
2022/12/10 08:23:10;;;;;;;26.43;15.57;;;;;;;;;;5033246;28;20037;-87
2022/12/10 08:25:36;;;;;;;24.60;15.03;;;;;;;;;;5037132;28;20292;-87
2022/12/10 08:28:02;;;;;;;24.73;14.50;;;;;;;;;;5037255;28;20064;-87
2022/12/10 08:30:28;;;;;;;26.90;15.35;;;;;;;;;;5035370;28;20037;-86
2022/12/10 08:32:53;;;;;;;25.75;15.63;;;;;;;;;;5045160;28;20037;-88
2022/12/10 08:35:18;;;;;;;28.73;16.47;;;;;;;;;;5035419;28;20041;-86
2022/12/10 08:37:44;;;;;;;27.88;16.70;;;;;;;;;;5032588;28;20280;-87
2022/12/10 08:40:09;;;;;;;26.50;16.07;;;;;;;;;;5033197;28;20064;-84
2022/12/10 08:42:35;;;;;;;25.95;14.77;;;;;;;;;;5034703;28;20038;-87
2022/12/10 08:45:01;;;;;;;23.53;15.10;;;;;;;;;;5032944;28;20505;-84
2022/12/10 08:47:27;;;;;;;26.35;15.38;;;;;;;;;;5031064;28;20276;-86
2022/12/10 08:49:52;;;;;;;27.42;16.30;;;;;;;;;;5029756;28;20033;-86
2022/12/10 08:52:17;;;;;;;25.23;14.93;;;;;;;22.38;100.00;120354.59;5029043;28;20034;-86
2022/12/10 08:54:42;;;;;;;32.30;17.85;;;;;;;;;;5029886;28;20106;-86
2022/12/10 08:57:07;;;;;;;26.43;16.00;;;;;;;;;;5029625;28;20129;-86
2022/12/10 08:59:32;;;;;;;26.75;15.38;;;;;;;;;;5030332;28;20099;-86
2022/12/10 09:01:58;;;;;;;27.73;16.03;;;;;;;;;;5029979;28;20026;-87
2022/12/10 09:04:23;;;;;;;28.07;16.33;;;;;;;;;;5029879;28;20504;-86
2022/12/10 09:06:48;;;;;;;26.33;15.70;;;;;;;;;;5031133;28;20030;-87
2022/12/10 09:09:13;;;;;;;25.33;14.63;;;;;;;;;;5032057;28;20284;-85
2022/12/10 09:11:38;;;;;;;24.70;15.03;;;;;;;;;;5030769;28;20508;-88
2022/12/10 09:14:04;;;;;;;24.03;14.20;;;;;;;;;;5032386;28;20284;-86
2022/12/10 09:16:30;;;;;;;25.50;15.50;;;;;;;;;;5031892;28;20265;-87
2022/12/10 09:18:55;;;;;;;24.13;14.23;;;;;;;;;;5032451;28;20037;-86
2022/12/10 09:21:20;;;;;;;23.13;14.30;;;;;;;;;;5029661;28;20037;-87
2022/12/10 09:23:46;;;;;;;24.95;14.70;;;;;;;;;;5030266;28;20088;-86
2022/12/10 09:26:13;;;;;;;23.33;13.93;;;;;;;;;;5031139;28;20037;-86
2022/12/10 09:28:39;;;;;;;21.52;14.43;;;;;;;;;;5031834;28;20060;-86
2022/12/10 09:31:05;;;;;;;22.88;14.02;;;;;;;;;;5028342;28;20065;-85
2022/12/10 09:33:31;;;;;;;23.25;14.43;;;;;;;;;;5028043;28;20512;-85
2022/12/10 09:35:56;;;;;;;21.60;13.80;;;;;;;;;;5029885;28;20029;-84
2022/12/10 09:38:21;;;;;;;21.17;13.85;;;;;;;;;;5029139;28;20052;-87
2022/12/10 09:40:55;;;;;;;21.23;13.68;;;;;;;;;;5029711;28;20525;-87
2022/12/10 09:43:39;;;;;;;19.63;12.75;;;;;;;;;;5027655;28;20480;-84
2022/12/10 09:46:04;;;;;;;22.80;13.90;;;;;;;;;;5022641;28;20124;-85
2022/12/10 09:48:32;;;;;;;23.97;15.03;;;;;;;;;;5035043;28;21077;-85
2022/12/10 09:51:10;;;;;;;23.08;14.20;;;;;;;;;;5034686;28;20048;-84
2022/12/10 09:53:37;;;;;;;23.15;14.02;;;;;;;;;;5029154;28;20034;-85
2022/12/10 09:56:02;;;;;;;20.75;13.55;;;;;;;;;;5034568;28;20046;-89
2022/12/10 09:58:27;;;;;;;21.33;13.50;;;;;;;;;;5030675;28;20037;-86
2022/12/10 10:01:01;;;;;;;22.73;13.95;;;;;;;;;;5018306;28;20038;-86
2022/12/10 10:03:27;;;;;;;21.58;13.70;;;;;;;;;;5013125;28;20034;-87
2022/12/10 10:05:53;;;;;;;23.75;14.30;;;;;;;;;;5024350;28;20121;-87
2022/12/10 10:08:18;;;;;;;26.00;14.63;;;;;;;;;;5023787;28;20026;-87
2022/12/10 10:10:44;;;;;;;23.23;14.20;;;;;;;;;;5036064;28;20096;-87
2022/12/10 10:13:28;;;;;;;25.45;15.02;;;;;;;;;;5039338;28;20037;-86
2022/12/10 10:15:53;;;;;;;20.58;13.15;;;;;;;;;;5035253;28;20037;-85
2022/12/10 10:18:37;;;;;;;25.45;15.75;;;;;;;;;;5033146;28;20531;-85
2022/12/10 10:21:04;;;;;;;20.90;14.15;;;;;;;;;;5029372;28;20543;-87
2022/12/10 10:23:29;;;;;;;20.90;13.00;;;;;;;;;;5033220;28;20045;-86
2022/12/10 10:25:55;;;;;;;22.20;14.57;;;;;;;;;;5026463;28;20418;-85
2022/12/10 10:28:21;;;;;;;22.43;15.27;;;;;;;;;;5028519;28;20037;-84
2022/12/10 10:30:47;;;;;;;22.17;14.23;;;;;;;;;;5030878;28;20512;-86
2022/12/10 10:33:14;;;;;;;22.92;14.73;;;;;;;;;;5024608;28;20045;-85
2022/12/10 10:36:08;;;;;;;22.10;15.07;;;;;;;;;;5027956;28;20041;-85
2022/12/10 10:38:34;;;;;;;23.17;13.60;;;;;;;;;;5010064;28;20065;-84
2022/12/10 10:41:02;;;;;;;22.27;14.63;;;;;;;;;;5028605;28;20633;-86
2022/12/10 10:43:31;;;;;;;23.65;14.13;;;;;;;;;;5025571;28;20878;-86
2022/12/10 10:46:06;;;;;;;22.23;14.15;;;;;;;;;;5029101;28;20064;-86
2022/12/10 10:48:32;;;;;;;21.42;13.68;;;;;;;;;;5031623;28;20037;-85
2022/12/10 10:51:12;;;;;;;22.77;14.13;;;;;;;;;;5033411;28;20456;-85
2022/12/10 10:53:37;;;;;;;22.95;15.00;;;;;;;;;;5030853;28;20277;-85
2022/12/10 10:56:16;;;;;;;25.57;15.90;;;;;;;;;;5033981;28;20530;-85
2022/12/10 10:59:04;;;;;;;21.95;14.60;;;;;;;;;;5035926;28;20037;-85
2022/12/10 11:01:44;;;;;;;23.02;14.38;;;;;;;;;;5025376;28;20033;-85
2022/12/10 11:04:09;;;;;;;22.48;14.40;;;;;;;;;;5031851;28;20083;-85
2022/12/10 11:06:34;;;;;;;23.30;14.73;;;;;;;;;;5031433;28;20509;-84
2022/12/10 11:08:59;;;;;;;24.83;14.93;;;;;;;;;;5029091;28;20041;-85
2022/12/10 11:11:31;;;;;;;23.85;15.48;;;;;;;;;;5034431;28;20835;-88
2022/12/10 11:14:12;;;;;;;25.35;15.88;;;;;;;;;;5029418;28;20042;-86
2022/12/10 11:16:38;;;;;;;22.38;14.70;;;;;;;;;;5028042;28;20129;-86
2022/12/10 11:19:04;;;;;;;25.42;15.30;;;;;;;;;;5032098;28;20466;-85
2022/12/10 11:21:33;;;;;;;21.85;14.65;;;;;;;;;;5032100;28;20044;-86
2022/12/10 11:23:58;;;;;;;22.65;14.77;;;;;;;;;;5029467;28;20041;-86
2022/12/10 11:26:50;;;;;;;22.13;14.00;;;;;;;;;;5025935;28;20043;-86
2022/12/10 11:29:33;;;;;;;20.50;13.90;;;;;;;;;;5028910;28;20088;-85
2022/12/10 11:31:59;;;;;;;22.45;13.75;;;;;;;;;;5027080;28;20037;-85
2022/12/10 11:34:39;;;;;;;23.23;14.20;;;;;;;;;;5030974;28;20034;-87
2022/12/10 11:37:04;;;;;;;20.07;13.73;;;;;;;;;;5037729;28;20065;-87
2022/12/10 11:39:38;;;;;;;23.70;14.37;;;;;;;;;;5036407;28;20527;-87
2022/12/10 11:42:24;;;;;;;22.50;14.70;;;;;;;;;;5035728;28;20037;-86
2022/12/10 11:44:54;;;;;;;22.15;14.63;;;;;;;;;;5016850;28;20091;-87
2022/12/10 11:47:29;;;;;;;23.70;13.82;;;;;;;;;;5025322;28;20496;-87
2022/12/10 11:49:57;;;;;;;22.77;14.70;;;;;;;;;;5026162;28;20124;-86
2022/12/10 11:52:28;;;;;;;21.02;14.05;;;;;;;;;;5022898;28;20033;-87
2022/12/10 11:55:12;;;;;;;20.90;14.02;;;;;;;;;;5023823;28;20037;-87
2022/12/10 11:57:47;;;;;;;21.45;13.55;;;;;;;;;;5021094;28;20050;-86
2022/12/10 12:00:12;;;;;;;;;;;;;;;;;;5023482;28;20041;-87
2022/12/10 12:03:16;;;;;;;23.77;14.35;;;;;;;;;;5026418;28;19939;-89
2022/12/10 12:05:59;;;;;;;19.63;13.07;;;;;;;;;;4988166;28;20678;-88
2022/12/10 12:08:33;;;;;;;18.75;14.38;;;;;;;;;;4969932;28;20933;-86
2022/12/10 12:11:02;;;;;;;19.27;13.73;;;;;;;;;;5015503;28;20116;-86
2022/12/10 12:13:35;;;;;;;19.88;13.38;;;;;;;;;;5029328;28;20033;-87
2022/12/10 12:16:08;;;;;;;19.45;12.68;;;;;;;;;;5019877;28;20037;-87
2022/12/10 12:18:43;;;;;;;17.92;12.35;;;;;;;;;;5019633;28;20129;-87
2022/12/10 12:21:14;;;;;;;18.73;12.60;;;;;;;;;;5018513;28;20116;-86
2022/12/10 12:23:43;;;;;;;17.70;14.20;;;;;;;;;;5020437;28;20457;-87
2022/12/10 12:26:08;;;;;;;;;;;;;;;;;;5029127;28;20125;-88
2022/12/10 12:29:05;;;;;;;20.00;13.23;;;;;;;;;;5030314;28;20003;-87
2022/12/10 12:31:33;;;;;;;21.20;13.52;;;;;;;;;;5004193;28;20034;-86
2022/12/10 12:34:13;;;;;;;20.30;13.05;;;;;;;;;;5028550;28;20724;-87
2022/12/10 12:36:38;;;;;;;20.23;12.77;;;;;;;;;;5030963;28;20412;-86
2022/12/10 12:39:14;;;;;;;18.77;13.05;;;;;;;;;;5024826;28;20030;-86
2022/12/10 12:42:00;;;;;;;18.92;12.68;;;;;;;;;;5025549;28;20077;-85
2022/12/10 12:44:34;;;;;;;21.15;13.82;;;;;;;;;;5028534;28;20042;-85
2022/12/10 12:47:03;;;;;;;21.05;13.65;;;;;;;;;;5031120;28;20036;-85
2022/12/10 12:49:31;;;;;;;20.90;13.73;;;;;;;;;;5029813;28;20033;-85
2022/12/10 12:51:59;;;;;;;19.40;13.10;;;;;;;;;;5029633;28;20049;-85
2022/12/10 12:54:25;;;;;;;17.98;12.25;;;;;;;;;;5030014;28;20037;-86
2022/12/10 12:56:59;;;;;;;20.67;13.40;;;;;;;;;;5029257;28;20107;-86
2022/12/10 12:59:47;;;;;;;21.30;13.95;;;;;;;;;;5029198;28;20048;-87
2022/12/10 13:02:13;;;;;;;21.33;13.60;;;;;;;;;;5029448;28;20037;-86
2022/12/10 13:04:38;;;;;;;19.45;12.93;;;;;;;;;;5031144;28;20041;-86
2022/12/10 13:07:13;;;;;;;19.52;12.75;;;;;;;;;;5029236;28;20040;-87
2022/12/10 13:09:47;;;;;;;19.50;12.70;;;;;;;;;;5028986;28;20042;-87
2022/12/10 13:12:32;;;;;;;20.65;13.50;;;;;;;;;;5028513;28;20123;-86
2022/12/10 13:15:02;;;;;;;18.88;12.95;;;;;;;;;;5030427;28;20044;-86
2022/12/10 13:17:32;;;;;;;20.65;13.40;;;;;;;;;;5028789;28;20068;-86
2022/12/10 13:20:16;;;;;;;19.90;13.77;;;;;;;;;;5029951;28;20048;-86
2022/12/10 13:22:44;;;;;;;21.20;13.45;;;;;;;;;;5031269;28;20676;-86
2022/12/10 13:25:17;;;;;;;20.92;14.07;;;;;;;;;;5032642;28;20123;-85
2022/12/10 13:27:54;;;;;;;19.95;13.05;;;;;;;;;;5030388;28;20124;-87
2022/12/10 13:30:30;;;;;;;22.17;14.00;;;;;;;;;;5029470;28;20114;-86
2022/12/10 13:33:10;;;;;;;21.88;13.70;;;;;;;;;;5030740;28;20040;-86
2022/12/10 13:35:42;;;;;;;19.73;12.90;;;;;;;;;;5030491;28;20175;-86
2022/12/10 13:38:27;;;;;;;20.35;13.10;;;;;;;;;;5031958;28;20035;-86
2022/12/10 13:46:53;;;;;;;20.75;13.10;;;;;;;;;;5032411;28;20063;-86
2022/12/10 13:49:20;;;;;;;18.58;12.35;;;;;;;;;;5032296;28;20040;-85
2022/12/10 13:51:45;;;;;;;;;;;;;;;;;;5032070;28;20133;-85
2022/12/10 13:54:19;;;;;;;17.00;11.15;;;;;;;;;;5032140;28;20023;-86
2022/12/10 13:56:44;;;;;;;19.70;12.45;;;;;;;;;;5031203;28;20068;-85
2022/12/10 13:59:27;;;;;;;19.57;12.80;;;;;;;;;;5030840;28;20038;-86
2022/12/10 14:02:11;;;;;;;21.10;12.75;;;;;;;;;;5033077;28;20033;-86
2022/12/10 14:04:53;;;;;;;20.08;12.68;;;;;;;;;;5031630;28;20471;-86
2022/12/10 14:07:19;;;;;;;18.88;11.70;;;;;;;;;;5031313;28;20034;-85
2022/12/10 14:09:54;;;;;;;18.40;12.25;;;;;;;;;;5030042;28;20084;-85
2022/12/10 14:12:31;;;;;;;18.38;12.30;;;;;;;;;;5030717;28;20065;-85
2022/12/10 14:14:59;;;;;;;20.50;13.18;;;;;;;;;;5031886;28;20033;-86
2022/12/10 14:17:30;;;;;;;20.48;12.73;;;;;;;;;;5030223;28;20551;-85
2022/12/10 14:19:56;;;;;;;22.77;13.63;;;;;;;;;;5029714;28;20040;-84
2022/12/10 14:22:44;;;;;;;22.10;13.37;;;;;;;;;;5029688;28;25838;-86
2022/12/10 14:25:12;;;;;;;19.15;12.07;;;;;;;;;;5031303;28;20775;-85
2022/12/10 14:27:37;;;;;;;21.40;13.18;;;;;;;;;;5029375;28;20048;-84
2022/12/10 14:30:04;;;;;;;18.77;12.50;;;;;;;;;;5029987;28;20037;-85
2022/12/10 14:32:32;;;;;;;16.90;11.20;;;;;;;;;;5032841;28;20147;-84
2022/12/10 14:34:58;;;;;;;17.73;11.85;;;;;;;;;;5014863;28;20100;-85
2022/12/10 14:37:25;;;;;;;18.38;11.63;;;;;;;;;;5015199;28;20046;-85